Tim Quigg — WDB6570 — position and weather

sailwx.info

Track history (hours):
 
Tides and Currents Weather Stations Pressure Air Temp Water Temp Dewpoint Dewpoint Depression Visibility Wind Speed Wind Dir Waves Ship Positions

Tim Quigg

Owner: Harley Marine Services, Inc, Seattle, WA. More information available from US FCC via Universal Licensing System and Coast Guard Vessel Documentation Center.

Last reported at 2016-Feb-12 04:32 UTC. Time now 2016-Feb-12 07:54 UTC.
Position N 33°46' W 118°16'.

Type: Tug. MMSI: 366926740.

Date/timePositionNaut miles runAvg speedWind from/ knotsBaromVisibWave heightAir tempDewpointWater temp
2016-Feb-12 04:32N 33°46' W 118°16'1 0.3
2016-Feb-11 23:20N 33°45' W 118°14'2 2.9
2016-Feb-11 22:33N 33°44' W 118°12'3 0.7
2016-Feb-11 18:12N 33°44' W 118°16'0 0.0
2016-Feb-11 17:31N 33°44' W 118°16'0 0.0
2016-Feb-11 16:11N 33°44' W 118°16'2 1.3
2016-Feb-11 14:26N 33°45' W 118°13'1 0.9
2016-Feb-11 13:26N 33°44' W 118°12'3 0.3
2016-Feb-11 03:08N 33°43' W 118°16'2 3.7
2016-Feb-11 02:33N 33°46' W 118°16'3 0.9
2016-Feb-10 23:33N 33°44' W 118°13'3 2.7
2016-Feb-10 22:27N 33°45' W 118°16'2 2.0
2016-Feb-10 21:33N 33°43' W 118°16'1 0.6
2016-Feb-10 20:33N 33°44' W 118°16'0 0.0
2016-Feb-10 19:33N 33°44' W 118°16'0 0.0
2016-Feb-10 17:32N 33°44' W 118°16'2 1.6
2016-Feb-10 16:32N 33°45' W 118°16'2 1.7
2016-Feb-10 15:32N 33°44' W 118°16'0 0.0
2016-Feb-10 08:27N 33°44' W 118°16'1 1.0
2016-Feb-10 07:28N 33°45' W 118°17'2 1.8
2016-Feb-10 06:33N 33°43' W 118°16'5 1.6
2016-Feb-10 03:31N 33°44' W 118°10'5 2.5
2016-Feb-10 01:34N 33°45' W 118°16'1 0.1
2016-Feb-09 17:33N 33°45' W 118°16'4 2.9
2016-Feb-09 16:07N 33°42' W 118°14'3 0.2
2016-Feb-08 20:08N 33°45' W 118°13'2 2.3
2016-Feb-08 19:26N 33°46' W 118°13'1 0.7
2016-Feb-08 18:33N 33°46' W 118°13'1 0.2
2016-Feb-08 13:33N 33°45' W 118°13'2 0.1
2016-Feb-07 03:32N 33°44' W 118°15'2 1.1
2016-Feb-07 02:12N 33°45' W 118°16'0 0.7
2016-Feb-07 01:33N 33°46' W 118°15'2 0.2
2016-Feb-06 18:15N 33°44' W 118°16'1 2.1
2016-Feb-06 17:33N 33°45' W 118°16'2 1.9
2016-Feb-06 16:16N 33°43' W 118°16'3 3.1
2016-Feb-06 15:19N 33°44' W 118°12'1 1.6
2016-Feb-06 14:33N 33°45' W 118°13'1 1.2
2016-Feb-06 13:34N 33°46' W 118°13'1 0.1
2016-Feb-05 23:06N 33°45' W 118°14'3 3.0
2016-Feb-05 22:14N 33°44' W 118°11'5 1.0
2016-Feb-05 17:32N 33°44' W 118°06'4 2.2
2016-Feb-05 15:33N 33°45' W 118°11'4 2.0
2016-Feb-05 13:21N 33°45' W 118°16'1 0.1
2016-Feb-05 04:30N 33°44' W 118°16'0 0.0
2016-Feb-05 03:34N 33°44' W 118°16'2 1.9
2016-Feb-05 02:33N 33°46' W 118°15'1 1.1
2016-Feb-05 01:33N 33°45' W 118°16'1 0.6
2016-Feb-04 23:33N 33°44' W 118°16'3 2.6
2016-Feb-04 22:32N 33°44' W 118°12'3 3.4
2016-Feb-04 21:34N 33°46' W 118°16'0 0.1
2016-Feb-04 13:33N 33°45' W 118°16'0 0.2
2016-Feb-04 12:33N 33°46' W 118°16'1 1.2
2016-Feb-04 11:33N 33°46' W 118°14'1 0.7
2016-Feb-04 10:33N 33°46' W 118°13'2 2.2
2016-Feb-04 09:33N 33°45' W 118°16'4 3.5
2016-Feb-04 08:22N 33°44' W 118°11'1 1.7
2016-Feb-04 07:33N 33°44' W 118°13'2 0.2
2016-Feb-03 17:31N 33°44' W 118°16'3 3.4
2016-Feb-03 16:33N 33°46' W 118°13'0 0.0
2016-Feb-03 15:33N 33°46' W 118°13'0 0.0
2016-Feb-03 14:33N 33°46' W 118°13'0 0.0
2016-Feb-03 13:33N 33°46' W 118°13'0 0.0
2016-Feb-03 12:33N 33°46' W 118°13'2 0.1
2016-Feb-02 05:25N 33°44' W 118°13'2 2.1
2016-Feb-02 04:33N 33°45' W 118°13'  
Track history (hours):
 
Tides and Currents Weather Stations Pressure Air Temp Water Temp Dewpoint Dewpoint Depression Visibility Wind Speed Wind Dir Waves Ship Positions

Tim Quigg

Owner: Harley Marine Services, Inc, Seattle, WA. More information available from US FCC via Universal Licensing System and Coast Guard Vessel Documentation Center.

Last reported at 2016-Feb-12 04:32 UTC. Time now 2016-Feb-12 07:54 UTC.
Position N 33°46' W 118°16'.

Type: Tug. MMSI: 366926740.

Date/timePositionNaut miles runAvg speedWind from/ knotsBaromVisibWave heightAir tempDewpointWater temp
2016-Feb-12 04:32N 33°46' W 118°16'1 0.3
2016-Feb-11 23:20N 33°45' W 118°14'2 2.9
2016-Feb-11 22:33N 33°44' W 118°12'3 0.7
2016-Feb-11 18:12N 33°44' W 118°16'0 0.0
2016-Feb-11 17:31N 33°44' W 118°16'0 0.0
2016-Feb-11 16:11N 33°44' W 118°16'2 1.3
2016-Feb-11 14:26N 33°45' W 118°13'1 0.9
2016-Feb-11 13:26N 33°44' W 118°12'3 0.3
2016-Feb-11 03:08N 33°43' W 118°16'2 3.7
2016-Feb-11 02:33N 33°46' W 118°16'3 0.9
2016-Feb-10 23:33N 33°44' W 118°13'3 2.7
2016-Feb-10 22:27N 33°45' W 118°16'2 2.0
2016-Feb-10 21:33N 33°43' W 118°16'1 0.6
2016-Feb-10 20:33N 33°44' W 118°16'0 0.0
2016-Feb-10 19:33N 33°44' W 118°16'0 0.0
2016-Feb-10 17:32N 33°44' W 118°16'2 1.6
2016-Feb-10 16:32N 33°45' W 118°16'2 1.7
2016-Feb-10 15:32N 33°44' W 118°16'0 0.0
2016-Feb-10 08:27N 33°44' W 118°16'1 1.0
2016-Feb-10 07:28N 33°45' W 118°17'2 1.8
2016-Feb-10 06:33N 33°43' W 118°16'5 1.6
2016-Feb-10 03:31N 33°44' W 118°10'5 2.5
2016-Feb-10 01:34N 33°45' W 118°16'1 0.1
2016-Feb-09 17:33N 33°45' W 118°16'4 2.9
2016-Feb-09 16:07N 33°42' W 118°14'3 0.2
2016-Feb-08 20:08N 33°45' W 118°13'2 2.3
2016-Feb-08 19:26N 33°46' W 118°13'1 0.7
2016-Feb-08 18:33N 33°46' W 118°13'1 0.2
2016-Feb-08 13:33N 33°45' W 118°13'2 0.1
2016-Feb-07 03:32N 33°44' W 118°15'2 1.1
2016-Feb-07 02:12N 33°45' W 118°16'0 0.7
2016-Feb-07 01:33N 33°46' W 118°15'2 0.2
2016-Feb-06 18:15N 33°44' W 118°16'1 2.1
2016-Feb-06 17:33N 33°45' W 118°16'2 1.9
2016-Feb-06 16:16N 33°43' W 118°16'3 3.1
2016-Feb-06 15:19N 33°44' W 118°12'1 1.6
2016-Feb-06 14:33N 33°45' W 118°13'1 1.2
2016-Feb-06 13:34N 33°46' W 118°13'1 0.1
2016-Feb-05 23:06N 33°45' W 118°14'3 3.0
2016-Feb-05 22:14N 33°44' W 118°11'5 1.0
2016-Feb-05 17:32N 33°44' W 118°06'4 2.2
2016-Feb-05 15:33N 33°45' W 118°11'4 2.0
2016-Feb-05 13:21N 33°45' W 118°16'1 0.1
2016-Feb-05 04:30N 33°44' W 118°16'0 0.0
2016-Feb-05 03:34N 33°44' W 118°16'2 1.9
2016-Feb-05 02:33N 33°46' W 118°15'1 1.1
2016-Feb-05 01:33N 33°45' W 118°16'1 0.6
2016-Feb-04 23:33N 33°44' W 118°16'3 2.6
2016-Feb-04 22:32N 33°44' W 118°12'3 3.4
2016-Feb-04 21:34N 33°46' W 118°16'0 0.1
2016-Feb-04 13:33N 33°45' W 118°16'0 0.2
2016-Feb-04 12:33N 33°46' W 118°16'1 1.2
2016-Feb-04 11:33N 33°46' W 118°14'1 0.7
2016-Feb-04 10:33N 33°46' W 118°13'2 2.2
2016-Feb-04 09:33N 33°45' W 118°16'4 3.5
2016-Feb-04 08:22N 33°44' W 118°11'1 1.7
2016-Feb-04 07:33N 33°44' W 118°13'2 0.2
2016-Feb-03 17:31N 33°44' W 118°16'3 3.4
2016-Feb-03 16:33N 33°46' W 118°13'0 0.0
2016-Feb-03 15:33N 33°46' W 118°13'0 0.0
2016-Feb-03 14:33N 33°46' W 118°13'0 0.0
2016-Feb-03 13:33N 33°46' W 118°13'0 0.0
2016-Feb-03 12:33N 33°46' W 118°13'2 0.1
2016-Feb-02 05:25N 33°44' W 118°13'2 2.1
2016-Feb-02 04:33N 33°45' W 118°13'  

Dump ship's entire track history